sensor_id;sensor_type;location;lat;lon;timestamp;P1;durP1;ratioP1;P2;durP2;ratioP2
70335;SDS011;57756;47.408;18.940;2022-07-29T00:00:11;6.83;;;2.63;;
70335;SDS011;57756;47.408;18.940;2022-07-29T00:02:37;6.07;;;2.60;;
70335;SDS011;57756;47.408;18.940;2022-07-29T00:05:03;5.07;;;2.60;;
70335;SDS011;57756;47.408;18.940;2022-07-29T00:07:29;8.93;;;3.00;;
70335;SDS011;57756;47.408;18.940;2022-07-29T00:09:55;5.30;;;2.70;;
70335;SDS011;57756;47.408;18.940;2022-07-29T00:12:21;5.03;;;2.80;;
70335;SDS011;57756;47.408;18.940;2022-07-29T00:14:49;6.65;;;3.08;;
70335;SDS011;57756;47.408;18.940;2022-07-29T00:17:15;6.05;;;3.40;;
70335;SDS011;57756;47.408;18.940;2022-07-29T00:19:40;5.97;;;2.80;;
70335;SDS011;57756;47.408;18.940;2022-07-29T00:22:06;6.03;;;3.23;;
70335;SDS011;57756;47.408;18.940;2022-07-29T00:24:31;5.73;;;3.20;;
70335;SDS011;57756;47.408;18.940;2022-07-29T00:26:57;6.10;;;3.10;;
70335;SDS011;57756;47.408;18.940;2022-07-29T00:29:23;5.40;;;3.45;;
70335;SDS011;57756;47.408;18.940;2022-07-29T00:31:48;4.67;;;3.10;;
70335;SDS011;57756;47.408;18.940;2022-07-29T00:34:14;5.93;;;2.90;;
70335;SDS011;57756;47.408;18.940;2022-07-29T00:36:58;6.23;;;3.60;;
70335;SDS011;57756;47.408;18.940;2022-07-29T00:39:24;4.88;;;3.15;;
70335;SDS011;57756;47.408;18.940;2022-07-29T00:41:49;4.77;;;3.10;;
70335;SDS011;57756;47.408;18.940;2022-07-29T00:44:15;5.05;;;3.10;;
70335;SDS011;57756;47.408;18.940;2022-07-29T00:46:41;5.70;;;3.10;;
70335;SDS011;57756;47.408;18.940;2022-07-29T00:49:06;5.07;;;3.17;;
70335;SDS011;57756;47.408;18.940;2022-07-29T00:51:32;4.87;;;2.73;;
70335;SDS011;57756;47.408;18.940;2022-07-29T00:54:00;4.95;;;3.30;;
70335;SDS011;57756;47.408;18.940;2022-07-29T00:56:27;4.85;;;3.20;;
70335;SDS011;57756;47.408;18.940;2022-07-29T00:58:56;7.18;;;3.40;;
70335;SDS011;57756;47.408;18.940;2022-07-29T01:01:22;5.95;;;3.30;;
70335;SDS011;57756;47.408;18.940;2022-07-29T01:03:47;5.17;;;3.17;;
70335;SDS011;57756;47.408;18.940;2022-07-29T01:06:13;8.03;;;3.30;;
70335;SDS011;57756;47.408;18.940;2022-07-29T01:08:40;6.22;;;3.00;;
70335;SDS011;57756;47.408;18.940;2022-07-29T01:11:06;5.65;;;3.25;;
70335;SDS011;57756;47.408;18.940;2022-07-29T01:13:31;5.63;;;3.13;;
70335;SDS011;57756;47.408;18.940;2022-07-29T01:15:59;5.95;;;2.95;;
70335;SDS011;57756;47.408;18.940;2022-07-29T01:18:37;4.93;;;3.17;;
70335;SDS011;57756;47.408;18.940;2022-07-29T01:21:16;7.87;;;2.87;;
70335;SDS011;57756;47.408;18.940;2022-07-29T01:26:42;5.53;;;3.85;;
70335;SDS011;57756;47.408;18.940;2022-07-29T01:34:23;8.75;;;3.25;;
70335;SDS011;57756;47.408;18.940;2022-07-29T01:36:55;5.43;;;2.75;;
70335;SDS011;57756;47.408;18.940;2022-07-29T01:39:30;5.00;;;2.67;;
70335;SDS011;57756;47.408;18.940;2022-07-29T01:42:01;5.82;;;3.00;;
70335;SDS011;57756;47.408;18.940;2022-07-29T01:44:55;6.27;;;3.33;;
70335;SDS011;57756;47.408;18.940;2022-07-29T01:47:25;5.43;;;3.38;;
70335;SDS011;57756;47.408;18.940;2022-07-29T01:49:55;4.90;;;3.38;;
70335;SDS011;57756;47.408;18.940;2022-07-29T01:52:25;8.30;;;3.50;;
70335;SDS011;57756;47.408;18.940;2022-07-29T01:54:57;6.65;;;3.40;;
70335;SDS011;57756;47.408;18.940;2022-07-29T01:57:28;7.23;;;3.70;;
70335;SDS011;57756;47.408;18.940;2022-07-29T01:59:57;10.55;;;4.13;;
70335;SDS011;57756;47.408;18.940;2022-07-29T02:02:25;8.50;;;3.65;;
70335;SDS011;57756;47.408;18.940;2022-07-29T02:04:53;9.25;;;3.40;;
70335;SDS011;57756;47.408;18.940;2022-07-29T02:07:20;9.55;;;3.70;;
70335;SDS011;57756;47.408;18.940;2022-07-29T02:09:47;9.27;;;4.03;;
70335;SDS011;57756;47.408;18.940;2022-07-29T02:12:16;9.52;;;4.10;;
70335;SDS011;57756;47.408;18.940;2022-07-29T02:14:52;22.92;;;4.75;;
70335;SDS011;57756;47.408;18.940;2022-07-29T02:17:29;19.02;;;4.40;;
70335;SDS011;57756;47.408;18.940;2022-07-29T02:20:00;23.10;;;5.35;;
70335;SDS011;57756;47.408;18.940;2022-07-29T02:22:28;13.90;;;4.00;;
70335;SDS011;57756;47.408;18.940;2022-07-29T02:24:55;6.78;;;3.33;;
70335;SDS011;57756;47.408;18.940;2022-07-29T02:27:23;11.75;;;3.90;;
70335;SDS011;57756;47.408;18.940;2022-07-29T02:29:52;12.50;;;4.70;;
70335;SDS011;57756;47.408;18.940;2022-07-29T02:32:18;9.02;;;3.60;;
70335;SDS011;57756;47.408;18.940;2022-07-29T02:34:47;12.30;;;4.70;;
70335;SDS011;57756;47.408;18.940;2022-07-29T02:37:13;8.90;;;4.13;;
70335;SDS011;57756;47.408;18.940;2022-07-29T02:39:42;7.75;;;4.07;;
70335;SDS011;57756;47.408;18.940;2022-07-29T02:42:10;6.07;;;4.10;;
70335;SDS011;57756;47.408;18.940;2022-07-29T02:44:39;6.22;;;3.80;;
70335;SDS011;57756;47.408;18.940;2022-07-29T02:49:55;6.68;;;3.90;;
70335;SDS011;57756;47.408;18.940;2022-07-29T02:55:25;7.87;;;4.23;;
70335;SDS011;57756;47.408;18.940;2022-07-29T02:57:57;6.25;;;3.63;;
70335;SDS011;57756;47.408;18.940;2022-07-29T03:00:29;5.60;;;4.10;;
70335;SDS011;57756;47.408;18.940;2022-07-29T03:02:58;7.90;;;4.28;;
70335;SDS011;57756;47.408;18.940;2022-07-29T03:05:25;6.18;;;4.38;;
70335;SDS011;57756;47.408;18.940;2022-07-29T03:07:55;7.47;;;3.80;;
70335;SDS011;57756;47.408;18.940;2022-07-29T03:10:25;6.45;;;4.32;;
70335;SDS011;57756;47.408;18.940;2022-07-29T03:12:51;6.30;;;4.28;;
70335;SDS011;57756;47.408;18.940;2022-07-29T03:15:18;10.27;;;3.92;;
70335;SDS011;57756;47.408;18.940;2022-07-29T03:17:44;8.85;;;4.13;;
70335;SDS011;57756;47.408;18.940;2022-07-29T03:20:10;8.57;;;4.10;;
70335;SDS011;57756;47.408;18.940;2022-07-29T03:22:40;7.13;;;3.63;;
70335;SDS011;57756;47.408;18.940;2022-07-29T03:25:11;9.18;;;4.07;;
70335;SDS011;57756;47.408;18.940;2022-07-29T03:27:37;11.27;;;4.38;;
70335;SDS011;57756;47.408;18.940;2022-07-29T03:30:03;19.27;;;4.73;;
70335;SDS011;57756;47.408;18.940;2022-07-29T03:32:30;14.60;;;4.70;;
70335;SDS011;57756;47.408;18.940;2022-07-29T03:34:55;16.40;;;4.77;;
70335;SDS011;57756;47.408;18.940;2022-07-29T03:37:20;17.02;;;4.47;;
70335;SDS011;57756;47.408;18.940;2022-07-29T03:39:46;11.50;;;4.73;;
70335;SDS011;57756;47.408;18.940;2022-07-29T03:42:13;9.05;;;3.85;;
70335;SDS011;57756;47.408;18.940;2022-07-29T03:44:41;6.68;;;3.90;;
70335;SDS011;57756;47.408;18.940;2022-07-29T03:47:09;20.17;;;5.33;;
70335;SDS011;57756;47.408;18.940;2022-07-29T03:49:36;12.10;;;4.82;;
70335;SDS011;57756;47.408;18.940;2022-07-29T03:52:03;9.05;;;3.80;;
70335;SDS011;57756;47.408;18.940;2022-07-29T03:54:29;8.43;;;3.97;;
70335;SDS011;57756;47.408;18.940;2022-07-29T03:56:55;10.33;;;3.77;;
70335;SDS011;57756;47.408;18.940;2022-07-29T03:59:24;12.95;;;4.22;;
70335;SDS011;57756;47.408;18.940;2022-07-29T04:01:51;9.18;;;3.78;;
70335;SDS011;57756;47.408;18.940;2022-07-29T04:04:18;11.70;;;4.03;;
70335;SDS011;57756;47.408;18.940;2022-07-29T04:06:44;12.20;;;4.00;;
70335;SDS011;57756;47.408;18.940;2022-07-29T04:09:11;19.92;;;5.05;;
70335;SDS011;57756;47.408;18.940;2022-07-29T04:11:40;14.40;;;4.57;;
70335;SDS011;57756;47.408;18.940;2022-07-29T04:14:06;16.93;;;5.00;;
70335;SDS011;57756;47.408;18.940;2022-07-29T04:16:32;11.68;;;3.95;;
70335;SDS011;57756;47.408;18.940;2022-07-29T04:18:57;21.03;;;5.47;;
70335;SDS011;57756;47.408;18.940;2022-07-29T04:21:23;14.50;;;4.80;;
70335;SDS011;57756;47.408;18.940;2022-07-29T04:23:49;15.68;;;5.00;;
70335;SDS011;57756;47.408;18.940;2022-07-29T04:26:18;10.67;;;3.93;;
70335;SDS011;57756;47.408;18.940;2022-07-29T04:28:44;12.38;;;4.20;;
70335;SDS011;57756;47.408;18.940;2022-07-29T04:31:11;12.77;;;4.38;;
70335;SDS011;57756;47.408;18.940;2022-07-29T04:33:38;8.55;;;3.38;;
70335;SDS011;57756;47.408;18.940;2022-07-29T04:36:03;12.60;;;4.00;;
70335;SDS011;57756;47.408;18.940;2022-07-29T04:38:30;7.90;;;3.33;;
70335;SDS011;57756;47.408;18.940;2022-07-29T04:40:55;8.43;;;3.83;;
70335;SDS011;57756;47.408;18.940;2022-07-29T04:43:21;5.30;;;3.20;;
70335;SDS011;57756;47.408;18.940;2022-07-29T04:45:47;8.25;;;3.58;;
70335;SDS011;57756;47.408;18.940;2022-07-29T04:48:12;6.73;;;3.40;;
70335;SDS011;57756;47.408;18.940;2022-07-29T04:50:38;7.27;;;3.67;;
70335;SDS011;57756;47.408;18.940;2022-07-29T04:53:04;14.82;;;4.15;;
70335;SDS011;57756;47.408;18.940;2022-07-29T04:55:30;7.82;;;3.47;;
70335;SDS011;57756;47.408;18.940;2022-07-29T04:57:56;11.00;;;3.97;;
70335;SDS011;57756;47.408;18.940;2022-07-29T05:00:21;11.52;;;4.40;;
70335;SDS011;57756;47.408;18.940;2022-07-29T05:02:48;7.53;;;4.38;;
70335;SDS011;57756;47.408;18.940;2022-07-29T05:05:14;4.97;;;3.43;;
70335;SDS011;57756;47.408;18.940;2022-07-29T05:07:39;14.07;;;4.93;;
70335;SDS011;57756;47.408;18.940;2022-07-29T05:10:05;7.40;;;3.60;;
70335;SDS011;57756;47.408;18.940;2022-07-29T05:12:31;9.30;;;3.47;;
70335;SDS011;57756;47.408;18.940;2022-07-29T05:14:57;7.55;;;3.60;;
70335;SDS011;57756;47.408;18.940;2022-07-29T05:17:22;6.03;;;3.43;;
70335;SDS011;57756;47.408;18.940;2022-07-29T05:19:48;6.93;;;3.80;;
70335;SDS011;57756;47.408;18.940;2022-07-29T05:22:16;8.10;;;3.38;;
70335;SDS011;57756;47.408;18.940;2022-07-29T05:24:42;8.98;;;3.20;;
70335;SDS011;57756;47.408;18.940;2022-07-29T05:27:08;5.53;;;3.17;;
70335;SDS011;57756;47.408;18.940;2022-07-29T05:29:34;6.60;;;3.47;;
70335;SDS011;57756;47.408;18.940;2022-07-29T05:32:00;11.43;;;3.58;;
70335;SDS011;57756;47.408;18.940;2022-07-29T05:34:25;6.33;;;4.23;;
70335;SDS011;57756;47.408;18.940;2022-07-29T05:36:51;6.40;;;3.80;;
70335;SDS011;57756;47.408;18.940;2022-07-29T05:39:17;5.40;;;3.67;;
70335;SDS011;57756;47.408;18.940;2022-07-29T05:41:43;8.68;;;3.83;;
70335;SDS011;57756;47.408;18.940;2022-07-29T05:44:08;7.63;;;3.83;;
70335;SDS011;57756;47.408;18.940;2022-07-29T05:46:34;5.80;;;3.35;;
70335;SDS011;57756;47.408;18.940;2022-07-29T05:48:59;8.97;;;3.83;;
70335;SDS011;57756;47.408;18.940;2022-07-29T05:51:25;10.57;;;4.07;;
70335;SDS011;57756;47.408;18.940;2022-07-29T05:53:50;6.20;;;4.10;;
70335;SDS011;57756;47.408;18.940;2022-07-29T05:56:16;9.47;;;3.93;;
70335;SDS011;57756;47.408;18.940;2022-07-29T05:58:42;7.97;;;3.90;;
70335;SDS011;57756;47.408;18.940;2022-07-29T06:01:08;7.75;;;4.22;;
70335;SDS011;57756;47.408;18.940;2022-07-29T06:03:33;7.30;;;3.63;;
70335;SDS011;57756;47.408;18.940;2022-07-29T06:06:02;9.20;;;4.32;;
70335;SDS011;57756;47.408;18.940;2022-07-29T06:08:28;7.82;;;4.03;;
70335;SDS011;57756;47.408;18.940;2022-07-29T06:10:54;5.90;;;3.50;;
70335;SDS011;57756;47.408;18.940;2022-07-29T06:13:19;9.30;;;4.38;;
70335;SDS011;57756;47.408;18.940;2022-07-29T06:15:45;11.60;;;4.23;;
70335;SDS011;57756;47.408;18.940;2022-07-29T06:18:11;6.73;;;3.93;;
70335;SDS011;57756;47.408;18.940;2022-07-29T06:20:38;8.20;;;3.88;;
70335;SDS011;57756;47.408;18.940;2022-07-29T06:23:03;8.93;;;4.00;;
70335;SDS011;57756;47.408;18.940;2022-07-29T06:25:29;8.75;;;3.95;;
70335;SDS011;57756;47.408;18.940;2022-07-29T06:27:55;9.98;;;3.78;;
70335;SDS011;57756;47.408;18.940;2022-07-29T06:30:21;5.63;;;3.63;;
70335;SDS011;57756;47.408;18.940;2022-07-29T06:32:46;7.82;;;3.97;;
70335;SDS011;57756;47.408;18.940;2022-07-29T06:35:12;6.23;;;4.13;;
70335;SDS011;57756;47.408;18.940;2022-07-29T06:37:37;8.63;;;4.13;;
70335;SDS011;57756;47.408;18.940;2022-07-29T06:40:03;11.27;;;4.30;;
70335;SDS011;57756;47.408;18.940;2022-07-29T06:42:48;10.95;;;3.45;;
70335;SDS011;57756;47.408;18.940;2022-07-29T06:45:14;7.13;;;3.97;;
70335;SDS011;57756;47.408;18.940;2022-07-29T06:47:40;10.70;;;4.10;;
70335;SDS011;57756;47.408;18.940;2022-07-29T06:50:05;7.83;;;4.57;;
70335;SDS011;57756;47.408;18.940;2022-07-29T06:52:31;9.55;;;4.50;;
70335;SDS011;57756;47.408;18.940;2022-07-29T06:54:56;7.23;;;3.97;;
70335;SDS011;57756;47.408;18.940;2022-07-29T06:57:22;5.85;;;4.20;;
70335;SDS011;57756;47.408;18.940;2022-07-29T06:59:47;8.37;;;4.20;;
70335;SDS011;57756;47.408;18.940;2022-07-29T07:02:13;8.63;;;4.17;;
70335;SDS011;57756;47.408;18.940;2022-07-29T07:04:39;9.20;;;4.03;;
70335;SDS011;57756;47.408;18.940;2022-07-29T07:07:04;6.30;;;4.20;;
70335;SDS011;57756;47.408;18.940;2022-07-29T07:09:30;8.68;;;4.13;;
70335;SDS011;57756;47.408;18.940;2022-07-29T07:11:56;5.10;;;4.00;;
70335;SDS011;57756;47.408;18.940;2022-07-29T07:14:21;8.07;;;3.92;;
70335;SDS011;57756;47.408;18.940;2022-07-29T07:16:47;9.63;;;4.60;;
70335;SDS011;57756;47.408;18.940;2022-07-29T07:19:12;7.60;;;3.90;;
70335;SDS011;57756;47.408;18.940;2022-07-29T07:21:38;8.10;;;5.05;;
70335;SDS011;57756;47.408;18.940;2022-07-29T07:24:03;10.63;;;4.53;;
70335;SDS011;57756;47.408;18.940;2022-07-29T07:26:29;10.93;;;4.30;;
70335;SDS011;57756;47.408;18.940;2022-07-29T07:28:55;14.47;;;5.20;;
70335;SDS011;57756;47.408;18.940;2022-07-29T07:31:21;8.85;;;4.82;;
70335;SDS011;57756;47.408;18.940;2022-07-29T07:33:46;7.13;;;4.53;;
70335;SDS011;57756;47.408;18.940;2022-07-29T07:36:12;7.38;;;4.47;;
70335;SDS011;57756;47.408;18.940;2022-07-29T07:38:37;5.47;;;4.63;;
70335;SDS011;57756;47.408;18.940;2022-07-29T07:41:03;8.83;;;4.60;;
70335;SDS011;57756;47.408;18.940;2022-07-29T07:43:28;9.95;;;5.10;;
70335;SDS011;57756;47.408;18.940;2022-07-29T07:45:54;8.07;;;4.40;;
70335;SDS011;57756;47.408;18.940;2022-07-29T07:48:19;10.63;;;4.77;;
70335;SDS011;57756;47.408;18.940;2022-07-29T07:50:45;7.00;;;4.37;;
70335;SDS011;57756;47.408;18.940;2022-07-29T07:53:11;6.53;;;4.88;;
70335;SDS011;57756;47.408;18.940;2022-07-29T07:55:42;12.77;;;4.77;;
70335;SDS011;57756;47.408;18.940;2022-07-29T07:58:08;8.32;;;4.28;;
70335;SDS011;57756;47.408;18.940;2022-07-29T08:00:35;9.50;;;4.72;;
70335;SDS011;57756;47.408;18.940;2022-07-29T08:03:00;9.47;;;4.60;;
70335;SDS011;57756;47.408;18.940;2022-07-29T08:05:26;7.75;;;4.63;;
70335;SDS011;57756;47.408;18.940;2022-07-29T08:07:51;8.67;;;4.53;;
70335;SDS011;57756;47.408;18.940;2022-07-29T08:10:17;6.85;;;4.70;;
70335;SDS011;57756;47.408;18.940;2022-07-29T08:13:04;7.55;;;4.68;;
70335;SDS011;57756;47.408;18.940;2022-07-29T08:15:31;6.13;;;4.70;;
70335;SDS011;57756;47.408;18.940;2022-07-29T08:17:57;7.97;;;4.65;;
70335;SDS011;57756;47.408;18.940;2022-07-29T08:20:22;7.43;;;4.20;;
70335;SDS011;57756;47.408;18.940;2022-07-29T08:22:48;6.93;;;4.93;;
70335;SDS011;57756;47.408;18.940;2022-07-29T08:25:13;10.17;;;5.00;;
70335;SDS011;57756;47.408;18.940;2022-07-29T08:27:39;13.25;;;5.00;;
70335;SDS011;57756;47.408;18.940;2022-07-29T08:30:04;8.13;;;4.57;;
70335;SDS011;57756;47.408;18.940;2022-07-29T08:32:30;8.40;;;4.60;;
70335;SDS011;57756;47.408;18.940;2022-07-29T08:34:56;7.60;;;4.90;;
70335;SDS011;57756;47.408;18.940;2022-07-29T08:37:22;7.47;;;4.53;;
70335;SDS011;57756;47.408;18.940;2022-07-29T08:39:47;7.10;;;5.30;;
70335;SDS011;57756;47.408;18.940;2022-07-29T08:42:13;8.27;;;4.87;;
70335;SDS011;57756;47.408;18.940;2022-07-29T08:44:38;9.13;;;4.97;;
70335;SDS011;57756;47.408;18.940;2022-07-29T08:47:04;8.10;;;4.80;;
70335;SDS011;57756;47.408;18.940;2022-07-29T08:49:30;8.63;;;4.55;;
70335;SDS011;57756;47.408;18.940;2022-07-29T08:51:57;8.95;;;5.03;;
70335;SDS011;57756;47.408;18.940;2022-07-29T08:54:24;9.10;;;4.93;;
70335;SDS011;57756;47.408;18.940;2022-07-29T08:56:50;9.40;;;4.95;;
70335;SDS011;57756;47.408;18.940;2022-07-29T08:59:18;12.10;;;5.22;;
70335;SDS011;57756;47.408;18.940;2022-07-29T09:01:47;9.93;;;4.63;;
70335;SDS011;57756;47.408;18.940;2022-07-29T09:04:13;51.83;;;7.32;;
70335;SDS011;57756;47.408;18.940;2022-07-29T09:06:44;7.70;;;4.27;;
70335;SDS011;57756;47.408;18.940;2022-07-29T09:09:12;11.18;;;4.78;;
70335;SDS011;57756;47.408;18.940;2022-07-29T09:11:38;8.63;;;4.53;;
70335;SDS011;57756;47.408;18.940;2022-07-29T09:14:05;11.20;;;5.75;;
70335;SDS011;57756;47.408;18.940;2022-07-29T09:16:50;7.93;;;4.83;;
70335;SDS011;57756;47.408;18.940;2022-07-29T09:19:26;8.70;;;4.70;;
70335;SDS011;57756;47.408;18.940;2022-07-29T09:22:02;8.18;;;4.45;;
70335;SDS011;57756;47.408;18.940;2022-07-29T09:26:59;7.18;;;4.32;;
70335;SDS011;57756;47.408;18.940;2022-07-29T09:29:25;9.38;;;5.05;;
70335;SDS011;57756;47.408;18.940;2022-07-29T09:31:52;5.40;;;4.37;;
70335;SDS011;57756;47.408;18.940;2022-07-29T09:34:27;8.02;;;4.55;;
70335;SDS011;57756;47.408;18.940;2022-07-29T09:36:54;5.57;;;4.30;;
70335;SDS011;57756;47.408;18.940;2022-07-29T09:39:29;5.80;;;4.20;;
70335;SDS011;57756;47.408;18.940;2022-07-29T09:41:57;6.75;;;3.75;;
70335;SDS011;57756;47.408;18.940;2022-07-29T09:44:24;8.77;;;4.00;;
70335;SDS011;57756;47.408;18.940;2022-07-29T09:47:03;9.57;;;3.88;;
70335;SDS011;57756;47.408;18.940;2022-07-29T09:49:33;9.43;;;3.83;;
70335;SDS011;57756;47.408;18.940;2022-07-29T09:52:08;10.00;;;3.80;;
70335;SDS011;57756;47.408;18.940;2022-07-29T09:54:35;7.40;;;3.80;;
70335;SDS011;57756;47.408;18.940;2022-07-29T09:57:04;5.30;;;3.60;;
70335;SDS011;57756;47.408;18.940;2022-07-29T09:59:31;7.88;;;3.55;;
70335;SDS011;57756;47.408;18.940;2022-07-29T10:01:57;12.82;;;3.78;;
70335;SDS011;57756;47.408;18.940;2022-07-29T10:04:23;7.13;;;3.90;;
70335;SDS011;57756;47.408;18.940;2022-07-29T10:06:55;6.83;;;3.57;;
70335;SDS011;57756;47.408;18.940;2022-07-29T10:09:25;6.05;;;3.80;;
70335;SDS011;57756;47.408;18.940;2022-07-29T10:14:31;6.60;;;3.10;;
70335;SDS011;57756;47.408;18.940;2022-07-29T10:16:59;7.57;;;4.22;;
70335;SDS011;57756;47.408;18.940;2022-07-29T10:19:27;10.93;;;3.97;;
70335;SDS011;57756;47.408;18.940;2022-07-29T10:21:54;8.60;;;3.88;;
70335;SDS011;57756;47.408;18.940;2022-07-29T10:24:21;6.87;;;3.90;;
70335;SDS011;57756;47.408;18.940;2022-07-29T10:26:48;5.00;;;3.88;;
70335;SDS011;57756;47.408;18.940;2022-07-29T10:29:14;8.95;;;4.25;;
70335;SDS011;57756;47.408;18.940;2022-07-29T10:34:49;10.93;;;3.90;;
70335;SDS011;57756;47.408;18.940;2022-07-29T10:40:26;12.02;;;3.78;;
70335;SDS011;57756;47.408;18.940;2022-07-29T10:43:18;8.43;;;3.85;;
70335;SDS011;57756;47.408;18.940;2022-07-29T10:45:47;8.37;;;3.60;;
70335;SDS011;57756;47.408;18.940;2022-07-29T10:48:13;8.02;;;4.00;;
70335;SDS011;57756;47.408;18.940;2022-07-29T10:50:55;6.25;;;3.65;;
70335;SDS011;57756;47.408;18.940;2022-07-29T10:53:22;7.60;;;3.35;;
70335;SDS011;57756;47.408;18.940;2022-07-29T10:55:48;5.05;;;3.17;;
70335;SDS011;57756;47.408;18.940;2022-07-29T11:00:43;8.32;;;3.42;;
70335;SDS011;57756;47.408;18.940;2022-07-29T11:03:09;6.43;;;3.63;;
70335;SDS011;57756;47.408;18.940;2022-07-29T11:06:10;4.60;;;3.28;;
70335;SDS011;57756;47.408;18.940;2022-07-29T11:08:36;5.73;;;3.70;;
70335;SDS011;57756;47.408;18.940;2022-07-29T11:16:15;4.57;;;3.20;;
70335;SDS011;57756;47.408;18.940;2022-07-29T11:21:36;7.97;;;3.20;;
70335;SDS011;57756;47.408;18.940;2022-07-29T11:24:12;6.55;;;3.50;;
70335;SDS011;57756;47.408;18.940;2022-07-29T11:27:05;5.60;;;3.42;;
70335;SDS011;57756;47.408;18.940;2022-07-29T11:29:39;8.17;;;4.00;;
70335;SDS011;57756;47.408;18.940;2022-07-29T11:32:13;6.95;;;4.05;;
70335;SDS011;57756;47.408;18.940;2022-07-29T11:34:40;5.53;;;3.53;;
70335;SDS011;57756;47.408;18.940;2022-07-29T11:39:33;4.33;;;3.40;;
70335;SDS011;57756;47.408;18.940;2022-07-29T11:44:59;6.10;;;3.28;;
70335;SDS011;57756;47.408;18.940;2022-07-29T11:47:36;8.05;;;3.92;;
70335;SDS011;57756;47.408;18.940;2022-07-29T11:50:04;5.53;;;3.58;;
70335;SDS011;57756;47.408;18.940;2022-07-29T11:52:38;8.63;;;4.03;;
70335;SDS011;57756;47.408;18.940;2022-07-29T11:55:11;7.88;;;3.70;;
70335;SDS011;57756;47.408;18.940;2022-07-29T12:00:38;5.63;;;3.58;;
70335;SDS011;57756;47.408;18.940;2022-07-29T12:03:06;7.50;;;3.55;;
70335;SDS011;57756;47.408;18.940;2022-07-29T12:05:35;5.97;;;3.83;;
70335;SDS011;57756;47.408;18.940;2022-07-29T12:08:06;7.97;;;3.85;;
70335;SDS011;57756;47.408;18.940;2022-07-29T12:10:31;6.15;;;3.50;;
70335;SDS011;57756;47.408;18.940;2022-07-29T12:12:57;5.80;;;3.47;;
70335;SDS011;57756;47.408;18.940;2022-07-29T12:15:23;4.35;;;3.50;;
70335;SDS011;57756;47.408;18.940;2022-07-29T12:17:50;4.85;;;3.55;;
70335;SDS011;57756;47.408;18.940;2022-07-29T12:20:23;8.83;;;3.30;;
70335;SDS011;57756;47.408;18.940;2022-07-29T12:22:53;4.60;;;3.13;;
70335;SDS011;57756;47.408;18.940;2022-07-29T12:25:19;7.65;;;3.45;;
70335;SDS011;57756;47.408;18.940;2022-07-29T12:27:47;4.70;;;3.20;;
70335;SDS011;57756;47.408;18.940;2022-07-29T12:30:23;5.53;;;3.28;;
70335;SDS011;57756;47.408;18.940;2022-07-29T12:33:00;6.47;;;3.70;;
70335;SDS011;57756;47.408;18.940;2022-07-29T12:35:25;5.82;;;3.60;;
70335;SDS011;57756;47.408;18.940;2022-07-29T12:37:51;8.13;;;3.27;;
70335;SDS011;57756;47.408;18.940;2022-07-29T12:40:17;7.35;;;3.28;;
70335;SDS011;57756;47.408;18.940;2022-07-29T12:45:43;4.78;;;3.60;;
70335;SDS011;57756;47.408;18.940;2022-07-29T12:48:11;5.27;;;3.10;;
70335;SDS011;57756;47.408;18.940;2022-07-29T12:50:51;7.40;;;3.55;;
70335;SDS011;57756;47.408;18.940;2022-07-29T12:53:21;4.90;;;3.25;;
70335;SDS011;57756;47.408;18.940;2022-07-29T12:55:48;4.07;;;3.00;;
70335;SDS011;57756;47.408;18.940;2022-07-29T12:58:26;5.33;;;3.07;;
70335;SDS011;57756;47.408;18.940;2022-07-29T13:01:00;5.70;;;3.28;;
70335;SDS011;57756;47.408;18.940;2022-07-29T13:03:25;4.85;;;3.38;;
70335;SDS011;57756;47.408;18.940;2022-07-29T13:05:51;6.13;;;3.00;;
70335;SDS011;57756;47.408;18.940;2022-07-29T13:08:17;7.40;;;2.97;;
70335;SDS011;57756;47.408;18.940;2022-07-29T13:10:46;7.60;;;3.00;;
70335;SDS011;57756;47.408;18.940;2022-07-29T13:13:15;6.75;;;2.85;;
70335;SDS011;57756;47.408;18.940;2022-07-29T13:15:41;4.13;;;3.00;;
70335;SDS011;57756;47.408;18.940;2022-07-29T13:20:53;4.35;;;2.70;;
70335;SDS011;57756;47.408;18.940;2022-07-29T13:23:18;5.53;;;3.13;;
70335;SDS011;57756;47.408;18.940;2022-07-29T13:25:44;6.03;;;3.67;;
70335;SDS011;57756;47.408;18.940;2022-07-29T13:28:09;5.40;;;3.00;;
70335;SDS011;57756;47.408;18.940;2022-07-29T13:30:36;6.53;;;3.30;;
70335;SDS011;57756;47.408;18.940;2022-07-29T13:33:02;6.10;;;3.20;;
70335;SDS011;57756;47.408;18.940;2022-07-29T13:35:28;4.37;;;2.80;;
70335;SDS011;57756;47.408;18.940;2022-07-29T13:37:54;7.20;;;3.67;;
70335;SDS011;57756;47.408;18.940;2022-07-29T13:40:20;4.82;;;2.85;;
70335;SDS011;57756;47.408;18.940;2022-07-29T13:42:46;5.30;;;3.08;;
70335;SDS011;57756;47.408;18.940;2022-07-29T13:45:12;5.10;;;3.40;;
70335;SDS011;57756;47.408;18.940;2022-07-29T13:47:38;6.68;;;3.20;;
70335;SDS011;57756;47.408;18.940;2022-07-29T13:50:05;5.30;;;3.10;;
70335;SDS011;57756;47.408;18.940;2022-07-29T13:52:32;8.00;;;3.35;;
70335;SDS011;57756;47.408;18.940;2022-07-29T13:54:59;6.83;;;3.10;;
70335;SDS011;57756;47.408;18.940;2022-07-29T13:57:25;7.90;;;3.20;;
70335;SDS011;57756;47.408;18.940;2022-07-29T13:59:50;5.78;;;3.25;;
70335;SDS011;57756;47.408;18.940;2022-07-29T14:02:16;5.10;;;2.83;;
70335;SDS011;57756;47.408;18.940;2022-07-29T14:04:41;6.47;;;2.90;;
70335;SDS011;57756;47.408;18.940;2022-07-29T14:07:07;5.57;;;3.37;;
70335;SDS011;57756;47.408;18.940;2022-07-29T14:09:33;4.27;;;2.87;;
70335;SDS011;57756;47.408;18.940;2022-07-29T14:11:58;6.90;;;2.92;;
70335;SDS011;57756;47.408;18.940;2022-07-29T14:14:24;5.00;;;3.50;;
70335;SDS011;57756;47.408;18.940;2022-07-29T14:16:49;5.25;;;3.20;;
70335;SDS011;57756;47.408;18.940;2022-07-29T14:19:15;6.00;;;3.30;;
70335;SDS011;57756;47.408;18.940;2022-07-29T14:21:40;5.17;;;2.87;;
70335;SDS011;57756;47.408;18.940;2022-07-29T14:24:06;5.32;;;3.25;;
70335;SDS011;57756;47.408;18.940;2022-07-29T14:26:32;10.13;;;3.30;;
70335;SDS011;57756;47.408;18.940;2022-07-29T14:28:57;8.23;;;3.23;;
70335;SDS011;57756;47.408;18.940;2022-07-29T14:31:22;5.78;;;3.08;;
70335;SDS011;57756;47.408;18.940;2022-07-29T14:33:48;5.73;;;3.40;;
70335;SDS011;57756;47.408;18.940;2022-07-29T14:36:14;5.93;;;3.30;;
70335;SDS011;57756;47.408;18.940;2022-07-29T14:38:39;4.10;;;3.10;;
70335;SDS011;57756;47.408;18.940;2022-07-29T14:41:05;7.40;;;3.30;;
70335;SDS011;57756;47.408;18.940;2022-07-29T14:43:33;6.78;;;3.30;;
70335;SDS011;57756;47.408;18.940;2022-07-29T14:45:59;4.63;;;3.30;;
70335;SDS011;57756;47.408;18.940;2022-07-29T14:48:25;6.97;;;3.50;;
70335;SDS011;57756;47.408;18.940;2022-07-29T14:50:51;11.57;;;3.80;;
70335;SDS011;57756;47.408;18.940;2022-07-29T14:53:16;7.67;;;3.27;;
70335;SDS011;57756;47.408;18.940;2022-07-29T14:55:42;6.60;;;3.00;;
70335;SDS011;57756;47.408;18.940;2022-07-29T14:58:09;5.55;;;3.58;;
70335;SDS011;57756;47.408;18.940;2022-07-29T15:00:34;5.70;;;3.30;;
70335;SDS011;57756;47.408;18.940;2022-07-29T15:03:01;5.93;;;2.87;;
70335;SDS011;57756;47.408;18.940;2022-07-29T15:05:27;4.53;;;3.03;;
70335;SDS011;57756;47.408;18.940;2022-07-29T15:07:53;6.30;;;3.33;;
70335;SDS011;57756;47.408;18.940;2022-07-29T15:10:18;5.80;;;3.17;;
70335;SDS011;57756;47.408;18.940;2022-07-29T15:12:44;10.07;;;3.30;;
70335;SDS011;57756;47.408;18.940;2022-07-29T15:15:10;6.07;;;2.93;;
70335;SDS011;57756;47.408;18.940;2022-07-29T15:17:35;5.77;;;3.20;;
70335;SDS011;57756;47.408;18.940;2022-07-29T15:20:01;7.53;;;3.22;;
70335;SDS011;57756;47.408;18.940;2022-07-29T15:22:26;7.50;;;3.37;;
70335;SDS011;57756;47.408;18.940;2022-07-29T15:24:52;6.80;;;3.53;;